Ewae — FAC8141 — position and weather

sailwx.info

Track history (hours):
 
Tides and Currents Weather Stations Pressure Air Temp Water Temp Dewpoint Dewpoint Depression Visibility Wind Speed Wind Dir Waves Ship Positions

Ewae

Last reported at 2017-Nov-03 11:07 UTC. Time now 2017-Nov-21 10:16 UTC.
Position N 47°35' W 003°02'.
Warning: this ship's position is 17 days out of date.

Length 9 m.

MMSI: 227348810.

Date/timePositionNaut miles runAvg speedWind from/ knotsBaromVisibWave heightAir tempDewpointWater temp
2017-Nov-03 11:07N 47°35' W 003°02'0 0.0
2017-Nov-03 10:58N 47°35' W 003°02'1 1.3
2017-Nov-03 10:30N 47°35' W 003°01'2 4.9
2017-Nov-03 10:00N 47°33' W 002°60'3 5.0
2017-Nov-03 09:31N 47°31' W 002°57'2 3.8
2017-Nov-03 09:00N 47°32' W 002°55'1 1.9
2017-Nov-03 08:28N 47°33' W 002°54'0 0.0
2017-Nov-02 21:45N 47°33' W 002°54'0 0.0
2017-Nov-02 21:27N 47°33' W 002°54'0 0.0
2017-Nov-02 20:57N 47°33' W 002°54'0 0.0
2017-Nov-02 20:27N 47°33' W 002°54'0 0.0
2017-Nov-02 19:45N 47°33' W 002°54'0 0.0
2017-Nov-02 16:57N 47°33' W 002°54'0 0.0
2017-Nov-02 16:30N 47°33' W 002°54'1 2.9
2017-Nov-02 16:00N 47°32' W 002°56'3 5.1
2017-Nov-02 15:30N 47°33' W 002°59'2 4.0
2017-Nov-02 15:00N 47°35' W 003°01'1 1.3
2017-Nov-02 14:29N 47°35' W 003°02'0 0.0
2017-Nov-02 13:56N 47°35' W 003°02'0 0.0
2017-Nov-02 13:26N 47°35' W 003°02'0 0.0
2017-Nov-02 12:59N 47°35' W 003°02'0 0.0
2017-Nov-02 12:26N 47°35' W 003°02'0 0.0
2017-Nov-02 11:59N 47°35' W 003°02'0 0.0
2017-Nov-02 11:22N 47°35' W 003°02'1 1.6
2017-Nov-02 10:59N 47°35' W 003°01'1 2.8
2017-Nov-02 10:30N 47°34' W 003°01'1 1.3
2017-Nov-02 10:00N 47°34' W 003°01'1 2.3
2017-Nov-02 09:30N 47°35' W 003°01'7 0.2
2017-Oct-31 21:17N 47°29' W 003°06'0 0.0
2017-Oct-31 19:29N 47°29' W 003°06'1 1.1
2017-Oct-31 19:00N 47°30' W 003°05'3 6.0
2017-Oct-31 18:30N 47°28' W 003°02'2 3.4
2017-Oct-31 17:59N 47°27' W 003°04'2 3.9
2017-Oct-31 17:30N 47°26' W 003°07'1 2.9
2017-Oct-31 17:00N 47°26' W 003°09'2 3.2
2017-Oct-31 16:29N 47°26' W 003°11'3 5.7
2017-Oct-31 16:00N 47°23' W 003°12'0 0.8
2017-Oct-31 15:30N 47°23' W 003°12'3 0.9
2017-Oct-31 12:47N 47°21' W 003°09'1 4.4
2017-Oct-31 12:29N 47°22' W 003°08'3 6.0
2017-Oct-31 12:00N 47°24' W 003°06'3 5.8
2017-Oct-31 11:30N 47°26' W 003°03'1 2.5
2017-Oct-31 11:00N 47°28' W 003°02'2 3.8
2017-Oct-31 10:30N 47°29' W 003°04'1 2.8
2017-Oct-31 09:59N 47°30' W 003°06'0 0.7
2017-Oct-31 09:30N 47°29' W 003°06'0 0.0
2017-Oct-30 21:09N 47°29' W 003°06'0 0.0
2017-Oct-30 21:00N 47°29' W 003°06'0 0.0
2017-Oct-30 20:30N 47°29' W 003°06'0 0.0
2017-Oct-30 19:59N 47°29' W 003°06'0 0.8
2017-Oct-30 19:30N 47°29' W 003°06'3 5.7
2017-Oct-30 18:58N 47°28' W 003°02'3 5.6
2017-Oct-30 18:29N 47°27' W 002°58'2 0.8
2017-Oct-30 15:27N 47°25' W 002°56'1 2.8
2017-Oct-30 15:00N 47°24' W 002°57'2 1.5
2017-Oct-30 13:52N 47°24' W 002°60'0 0.0
2017-Oct-30 12:24N 47°24' W 002°60'1 1.9
2017-Oct-30 11:59N 47°24' W 003°01'2 3.7
2017-Oct-30 11:29N 47°26' W 002°60'2 4.8
2017-Oct-30 11:00N 47°28' W 002°60'2 4.8
2017-Oct-30 10:30N 47°31' W 003°00'2 3.1
2017-Oct-30 10:00N 47°32' W 003°00'2 4.1
2017-Oct-30 09:30N 47°34' W 003°01'1 2.5
2017-Oct-30 09:00N 47°35' W 003°02'0 0.0
2017-Oct-30 07:54N 47°35' W 003°02'0 0.0
2017-Oct-29 22:11N 47°35' W 003°02'0 0.0
2017-Oct-29 21:59N 47°35' W 003°02'0 0.0
2017-Oct-29 21:29N 47°35' W 003°02'0 0.0
2017-Oct-29 20:59N 47°35' W 003°02'0 0.0
2017-Oct-29 19:53N 47°35' W 003°02'0 0.0
2017-Oct-29 19:29N 47°35' W 003°02'0 0.0
2017-Oct-29 18:59N 47°35' W 003°02'0 0.0
2017-Oct-29 17:34N 47°35' W 003°02'0 0.0
2017-Oct-29 17:15N 47°35' W 003°02'0 0.0
2017-Oct-29 16:57N 47°35' W 003°02'1 2.0
2017-Oct-29 16:30N 47°35' W 003°01'2 3.5
2017-Oct-29 16:00N 47°33' W 003°01'2 3.3
2017-Oct-29 15:30N 47°31' W 002°60'2 3.3
2017-Oct-29 15:00N 47°30' W 002°58'2 4.1
2017-Oct-29 14:30N 47°31' W 002°55'2 3.3
2017-Oct-29 13:59N 47°32' W 002°53'0 0.0
2017-Oct-29 13:26N 47°32' W 002°53'0 0.0
2017-Oct-29 12:59N 47°32' W 002°53'0 0.0
2017-Oct-29 12:29N 47°32' W 002°53'0 0.0
2017-Oct-29 11:59N 47°32' W 002°53'1 3.0
2017-Oct-29 11:30N 47°31' W 002°55'3 5.5
2017-Oct-29 11:00N 47°31' W 002°59'2 4.8
2017-Oct-29 10:30N 47°31' W 003°02'2 3.4
2017-Oct-29 10:00N 47°32' W 003°01'2 4.6
2017-Oct-29 09:30N 47°35' W 003°01'1 1.7
2017-Oct-29 09:01N 47°35' W 003°02'0 0.0
2017-Oct-29 08:30N 47°35' W 003°02'0 0.0
2017-Oct-29 08:00N 47°35' W 003°02'0 0.0
2017-Oct-29 07:30N 47°35' W 003°02'0 0.0
2017-Oct-29 07:00N 47°35' W 003°02'0 0.0
2017-Oct-29 06:30N 47°35' W 003°02'0 0.0
2017-Oct-29 06:00N 47°35' W 003°02'0 0.0
2017-Oct-29 05:30N 47°35' W 003°02'0 0.0
2017-Oct-29 05:00N 47°35' W 003°02'0 0.0
2017-Oct-29 04:30N 47°35' W 003°02'0 0.0
2017-Oct-29 04:00N 47°35' W 003°02'0 0.0
2017-Oct-28 18:24N 47°35' W 003°02'0 0.0
2017-Oct-28 18:00N 47°35' W 003°02'0 0.0
2017-Oct-28 17:30N 47°35' W 003°02'0 0.0
2017-Oct-28 17:00N 47°35' W 003°02'0 0.0
2017-Oct-28 16:30N 47°35' W 003°02'0 0.0
2017-Oct-28 16:00N 47°35' W 003°02'0 0.0
2017-Oct-28 15:30N 47°35' W 003°02'0 0.0
2017-Oct-28 15:00N 47°35' W 003°02'0 0.0
2017-Oct-28 14:29N 47°35' W 003°02'0 0.0
2017-Oct-28 13:59N 47°35' W 003°02'0 0.0
2017-Oct-28 13:29N 47°35' W 003°02'0 0.0
2017-Oct-28 12:59N 47°35' W 003°02'0 0.0
2017-Oct-28 12:29N 47°35' W 003°02'0 0.0
2017-Oct-28 11:59N 47°35' W 003°02'0 0.0
2017-Oct-28 11:29N 47°35' W 003°02'0 0.0
2017-Oct-28 10:59N 47°35' W 003°02'0 0.0
2017-Oct-28 10:29N 47°35' W 003°02'0 0.0
2017-Oct-28 09:59N 47°35' W 003°02'0 0.0
2017-Oct-28 09:29N 47°35' W 003°02'0 0.0
2017-Oct-28 08:59N 47°35' W 003°02'0 0.0
2017-Oct-28 08:29N 47°35' W 003°02'0 0.0
2017-Oct-28 07:59N 47°35' W 003°02'0 0.0
2017-Oct-28 07:29N 47°35' W 003°02'0 0.0
2017-Oct-28 06:59N 47°35' W 003°02'0 0.0
2017-Oct-28 06:29N 47°35' W 003°02'0 0.0
2017-Oct-28 05:59N 47°35' W 003°02'0 0.0
2017-Oct-28 05:29N 47°35' W 003°02'0 0.0
2017-Oct-28 04:56N 47°35' W 003°02'0 0.0
2017-Oct-28 04:29N 47°35' W 003°02'0 0.0
2017-Oct-28 03:59N 47°35' W 003°02'0 0.0
2017-Oct-28 03:26N 47°35' W 003°02'0 0.0
2017-Oct-28 02:59N 47°35' W 003°02'0 0.0
2017-Oct-28 02:29N 47°35' W 003°02'0 0.0
2017-Oct-28 01:59N 47°35' W 003°02'0 0.0
2017-Oct-28 01:29N 47°35' W 003°02'0 0.0
2017-Oct-28 00:59N 47°35' W 003°02'0 0.0
2017-Oct-28 00:29N 47°35' W 003°02'0 0.0
2017-Oct-27 23:59N 47°35' W 003°02'0 0.0
2017-Oct-27 23:29N 47°35' W 003°02'0 0.0
2017-Oct-27 22:59N 47°35' W 003°02'0 0.0
2017-Oct-27 22:29N 47°35' W 003°02'0 0.0
2017-Oct-27 21:59N 47°35' W 003°02'0 0.0
2017-Oct-27 21:29N 47°35' W 003°02'0 0.0
2017-Oct-27 20:59N 47°35' W 003°02'0 0.0
2017-Oct-27 20:29N 47°35' W 003°02'0 0.0
2017-Oct-27 19:59N 47°35' W 003°02'0 0.0
2017-Oct-27 19:29N 47°35' W 003°02'0 0.0
2017-Oct-27 18:59N 47°35' W 003°02'0 0.0
2017-Oct-27 18:29N 47°35' W 003°02'0 0.0
2017-Oct-27 17:59N 47°35' W 003°02'0 0.0
2017-Oct-27 17:26N 47°35' W 003°02'0 0.0
2017-Oct-27 16:59N 47°35' W 003°02'0 0.0
2017-Oct-27 16:29N 47°35' W 003°02'0 0.0
2017-Oct-27 15:59N 47°35' W 003°02'0 0.0
2017-Oct-27 15:29N 47°35' W 003°02'0 0.0
2017-Oct-27 14:59N 47°35' W 003°02'0 0.0
2017-Oct-27 14:26N 47°35' W 003°02'0 0.0
2017-Oct-27 13:56N 47°35' W 003°02'0 0.0
2017-Oct-27 13:29N 47°35' W 003°02'0 0.0
2017-Oct-27 12:59N 47°35' W 003°02'0 0.0
2017-Oct-27 12:29N 47°35' W 003°02'0 0.0
2017-Oct-27 11:59N 47°35' W 003°02'0 0.0
2017-Oct-27 11:29N 47°35' W 003°02'0 0.0
2017-Oct-27 10:59N 47°35' W 003°02'0 0.0
2017-Oct-27 10:29N 47°35' W 003°02'0 0.0
2017-Oct-27 09:59N 47°35' W 003°02'0 0.0
2017-Oct-27 09:29N 47°35' W 003°02'0 0.0
2017-Oct-26 14:19N 47°35' W 003°02'0 0.0
2017-Oct-26 13:58N 47°35' W 003°02'0 0.0
2017-Oct-26 13:28N 47°35' W 003°02'0 0.0
2017-Oct-26 12:58N 47°35' W 003°02'0 0.0
2017-Oct-26 12:28N 47°35' W 003°02'0 0.0
2017-Oct-26 11:58N 47°35' W 003°02'0 0.0
2017-Oct-26 11:28N 47°35' W 003°02'0 0.0
2017-Oct-26 10:58N 47°35' W 003°02'0 0.0
2017-Oct-26 10:28N 47°35' W 003°02'0 0.0
2017-Oct-26 09:58N 47°35' W 003°02'0 0.0
2017-Oct-26 09:28N 47°35' W 003°02'0 0.0
2017-Oct-26 08:58N 47°35' W 003°02'0 0.0
2017-Oct-25 14:37N 47°35' W 003°02'0 0.0
2017-Oct-25 14:19N 47°35' W 003°02'0 0.0
2017-Oct-25 13:52N 47°35' W 003°02'0 0.0
2017-Oct-25 13:28N 47°35' W 003°02'0 0.0
2017-Oct-25 12:49N 47°35' W 003°02'0 0.0
2017-Oct-25 12:28N 47°35' W 003°02'0 0.0
2017-Oct-25 11:55N 47°35' W 003°02'0 0.0
2017-Oct-25 11:25N 47°35' W 003°02'0 0.0
2017-Oct-25 10:58N 47°35' W 003°02'0 0.0
2017-Oct-25 10:28N 47°35' W 003°02'0 0.0
2017-Oct-25 09:58N 47°35' W 003°02'0 0.0
2017-Oct-25 09:28N 47°35' W 003°02'0 0.0
2017-Oct-25 08:58N 47°35' W 003°02'0 0.0
2017-Oct-25 08:28N 47°35' W 003°02'  
Track history (hours):
 
Tides and Currents Weather Stations Pressure Air Temp Water Temp Dewpoint Dewpoint Depression Visibility Wind Speed Wind Dir Waves Ship Positions

Ewae

Last reported at 2017-Nov-03 11:07 UTC. Time now 2017-Nov-21 10:16 UTC.
Position N 47°35' W 003°02'.
Warning: this ship's position is 17 days out of date.

Length 9 m.

MMSI: 227348810.

Date/timePositionNaut miles runAvg speedWind from/ knotsBaromVisibWave heightAir tempDewpointWater temp
2017-Nov-03 11:07N 47°35' W 003°02'0 0.0
2017-Nov-03 10:58N 47°35' W 003°02'1 1.3
2017-Nov-03 10:30N 47°35' W 003°01'2 4.9
2017-Nov-03 10:00N 47°33' W 002°60'3 5.0
2017-Nov-03 09:31N 47°31' W 002°57'2 3.8
2017-Nov-03 09:00N 47°32' W 002°55'1 1.9
2017-Nov-03 08:28N 47°33' W 002°54'0 0.0
2017-Nov-02 21:45N 47°33' W 002°54'0 0.0
2017-Nov-02 21:27N 47°33' W 002°54'0 0.0
2017-Nov-02 20:57N 47°33' W 002°54'0 0.0
2017-Nov-02 20:27N 47°33' W 002°54'0 0.0
2017-Nov-02 19:45N 47°33' W 002°54'0 0.0
2017-Nov-02 16:57N 47°33' W 002°54'0 0.0
2017-Nov-02 16:30N 47°33' W 002°54'1 2.9
2017-Nov-02 16:00N 47°32' W 002°56'3 5.1
2017-Nov-02 15:30N 47°33' W 002°59'2 4.0
2017-Nov-02 15:00N 47°35' W 003°01'1 1.3
2017-Nov-02 14:29N 47°35' W 003°02'0 0.0
2017-Nov-02 13:56N 47°35' W 003°02'0 0.0
2017-Nov-02 13:26N 47°35' W 003°02'0 0.0
2017-Nov-02 12:59N 47°35' W 003°02'0 0.0
2017-Nov-02 12:26N 47°35' W 003°02'0 0.0
2017-Nov-02 11:59N 47°35' W 003°02'0 0.0
2017-Nov-02 11:22N 47°35' W 003°02'1 1.6
2017-Nov-02 10:59N 47°35' W 003°01'1 2.8
2017-Nov-02 10:30N 47°34' W 003°01'1 1.3
2017-Nov-02 10:00N 47°34' W 003°01'1 2.3
2017-Nov-02 09:30N 47°35' W 003°01'7 0.2
2017-Oct-31 21:17N 47°29' W 003°06'0 0.0
2017-Oct-31 19:29N 47°29' W 003°06'1 1.1
2017-Oct-31 19:00N 47°30' W 003°05'3 6.0
2017-Oct-31 18:30N 47°28' W 003°02'2 3.4
2017-Oct-31 17:59N 47°27' W 003°04'2 3.9
2017-Oct-31 17:30N 47°26' W 003°07'1 2.9
2017-Oct-31 17:00N 47°26' W 003°09'2 3.2
2017-Oct-31 16:29N 47°26' W 003°11'3 5.7
2017-Oct-31 16:00N 47°23' W 003°12'0 0.8
2017-Oct-31 15:30N 47°23' W 003°12'3 0.9
2017-Oct-31 12:47N 47°21' W 003°09'1 4.4
2017-Oct-31 12:29N 47°22' W 003°08'3 6.0
2017-Oct-31 12:00N 47°24' W 003°06'3 5.8
2017-Oct-31 11:30N 47°26' W 003°03'1 2.5
2017-Oct-31 11:00N 47°28' W 003°02'2 3.8
2017-Oct-31 10:30N 47°29' W 003°04'1 2.8
2017-Oct-31 09:59N 47°30' W 003°06'0 0.7
2017-Oct-31 09:30N 47°29' W 003°06'0 0.0
2017-Oct-30 21:09N 47°29' W 003°06'0 0.0
2017-Oct-30 21:00N 47°29' W 003°06'0 0.0
2017-Oct-30 20:30N 47°29' W 003°06'0 0.0
2017-Oct-30 19:59N 47°29' W 003°06'0 0.8
2017-Oct-30 19:30N 47°29' W 003°06'3 5.7
2017-Oct-30 18:58N 47°28' W 003°02'3 5.6
2017-Oct-30 18:29N 47°27' W 002°58'2 0.8
2017-Oct-30 15:27N 47°25' W 002°56'1 2.8
2017-Oct-30 15:00N 47°24' W 002°57'2 1.5
2017-Oct-30 13:52N 47°24' W 002°60'0 0.0
2017-Oct-30 12:24N 47°24' W 002°60'1 1.9
2017-Oct-30 11:59N 47°24' W 003°01'2 3.7
2017-Oct-30 11:29N 47°26' W 002°60'2 4.8
2017-Oct-30 11:00N 47°28' W 002°60'2 4.8
2017-Oct-30 10:30N 47°31' W 003°00'2 3.1
2017-Oct-30 10:00N 47°32' W 003°00'2 4.1
2017-Oct-30 09:30N 47°34' W 003°01'1 2.5
2017-Oct-30 09:00N 47°35' W 003°02'0 0.0
2017-Oct-30 07:54N 47°35' W 003°02'0 0.0
2017-Oct-29 22:11N 47°35' W 003°02'0 0.0
2017-Oct-29 21:59N 47°35' W 003°02'0 0.0
2017-Oct-29 21:29N 47°35' W 003°02'0 0.0
2017-Oct-29 20:59N 47°35' W 003°02'0 0.0
2017-Oct-29 19:53N 47°35' W 003°02'0 0.0
2017-Oct-29 19:29N 47°35' W 003°02'0 0.0
2017-Oct-29 18:59N 47°35' W 003°02'0 0.0
2017-Oct-29 17:34N 47°35' W 003°02'0 0.0
2017-Oct-29 17:15N 47°35' W 003°02'0 0.0
2017-Oct-29 16:57N 47°35' W 003°02'1 2.0
2017-Oct-29 16:30N 47°35' W 003°01'2 3.5
2017-Oct-29 16:00N 47°33' W 003°01'2 3.3
2017-Oct-29 15:30N 47°31' W 002°60'2 3.3
2017-Oct-29 15:00N 47°30' W 002°58'2 4.1
2017-Oct-29 14:30N 47°31' W 002°55'2 3.3
2017-Oct-29 13:59N 47°32' W 002°53'0 0.0
2017-Oct-29 13:26N 47°32' W 002°53'0 0.0
2017-Oct-29 12:59N 47°32' W 002°53'0 0.0
2017-Oct-29 12:29N 47°32' W 002°53'0 0.0
2017-Oct-29 11:59N 47°32' W 002°53'1 3.0
2017-Oct-29 11:30N 47°31' W 002°55'3 5.5
2017-Oct-29 11:00N 47°31' W 002°59'2 4.8
2017-Oct-29 10:30N 47°31' W 003°02'2 3.4
2017-Oct-29 10:00N 47°32' W 003°01'2 4.6
2017-Oct-29 09:30N 47°35' W 003°01'1 1.7
2017-Oct-29 09:01N 47°35' W 003°02'0 0.0
2017-Oct-29 08:30N 47°35' W 003°02'0 0.0
2017-Oct-29 08:00N 47°35' W 003°02'0 0.0
2017-Oct-29 07:30N 47°35' W 003°02'0 0.0
2017-Oct-29 07:00N 47°35' W 003°02'0 0.0
2017-Oct-29 06:30N 47°35' W 003°02'0 0.0
2017-Oct-29 06:00N 47°35' W 003°02'0 0.0
2017-Oct-29 05:30N 47°35' W 003°02'0 0.0
2017-Oct-29 05:00N 47°35' W 003°02'0 0.0
2017-Oct-29 04:30N 47°35' W 003°02'0 0.0
2017-Oct-29 04:00N 47°35' W 003°02'0 0.0
2017-Oct-28 18:24N 47°35' W 003°02'0 0.0
2017-Oct-28 18:00N 47°35' W 003°02'0 0.0
2017-Oct-28 17:30N 47°35' W 003°02'0 0.0
2017-Oct-28 17:00N 47°35' W 003°02'0 0.0
2017-Oct-28 16:30N 47°35' W 003°02'0 0.0
2017-Oct-28 16:00N 47°35' W 003°02'0 0.0
2017-Oct-28 15:30N 47°35' W 003°02'0 0.0
2017-Oct-28 15:00N 47°35' W 003°02'0 0.0
2017-Oct-28 14:29N 47°35' W 003°02'0 0.0
2017-Oct-28 13:59N 47°35' W 003°02'0 0.0
2017-Oct-28 13:29N 47°35' W 003°02'0 0.0
2017-Oct-28 12:59N 47°35' W 003°02'0 0.0
2017-Oct-28 12:29N 47°35' W 003°02'0 0.0
2017-Oct-28 11:59N 47°35' W 003°02'0 0.0
2017-Oct-28 11:29N 47°35' W 003°02'0 0.0
2017-Oct-28 10:59N 47°35' W 003°02'0 0.0
2017-Oct-28 10:29N 47°35' W 003°02'0 0.0
2017-Oct-28 09:59N 47°35' W 003°02'0 0.0
2017-Oct-28 09:29N 47°35' W 003°02'0 0.0
2017-Oct-28 08:59N 47°35' W 003°02'0 0.0
2017-Oct-28 08:29N 47°35' W 003°02'0 0.0
2017-Oct-28 07:59N 47°35' W 003°02'0 0.0
2017-Oct-28 07:29N 47°35' W 003°02'0 0.0
2017-Oct-28 06:59N 47°35' W 003°02'0 0.0
2017-Oct-28 06:29N 47°35' W 003°02'0 0.0
2017-Oct-28 05:59N 47°35' W 003°02'0 0.0
2017-Oct-28 05:29N 47°35' W 003°02'0 0.0
2017-Oct-28 04:56N 47°35' W 003°02'0 0.0
2017-Oct-28 04:29N 47°35' W 003°02'0 0.0
2017-Oct-28 03:59N 47°35' W 003°02'0 0.0
2017-Oct-28 03:26N 47°35' W 003°02'0 0.0
2017-Oct-28 02:59N 47°35' W 003°02'0 0.0
2017-Oct-28 02:29N 47°35' W 003°02'0 0.0
2017-Oct-28 01:59N 47°35' W 003°02'0 0.0
2017-Oct-28 01:29N 47°35' W 003°02'0 0.0
2017-Oct-28 00:59N 47°35' W 003°02'0 0.0
2017-Oct-28 00:29N 47°35' W 003°02'0 0.0
2017-Oct-27 23:59N 47°35' W 003°02'0 0.0
2017-Oct-27 23:29N 47°35' W 003°02'0 0.0
2017-Oct-27 22:59N 47°35' W 003°02'0 0.0
2017-Oct-27 22:29N 47°35' W 003°02'0 0.0
2017-Oct-27 21:59N 47°35' W 003°02'0 0.0
2017-Oct-27 21:29N 47°35' W 003°02'0 0.0
2017-Oct-27 20:59N 47°35' W 003°02'0 0.0
2017-Oct-27 20:29N 47°35' W 003°02'0 0.0
2017-Oct-27 19:59N 47°35' W 003°02'0 0.0
2017-Oct-27 19:29N 47°35' W 003°02'0 0.0
2017-Oct-27 18:59N 47°35' W 003°02'0 0.0
2017-Oct-27 18:29N 47°35' W 003°02'0 0.0
2017-Oct-27 17:59N 47°35' W 003°02'0 0.0
2017-Oct-27 17:26N 47°35' W 003°02'0 0.0
2017-Oct-27 16:59N 47°35' W 003°02'0 0.0
2017-Oct-27 16:29N 47°35' W 003°02'0 0.0
2017-Oct-27 15:59N 47°35' W 003°02'0 0.0
2017-Oct-27 15:29N 47°35' W 003°02'0 0.0
2017-Oct-27 14:59N 47°35' W 003°02'0 0.0
2017-Oct-27 14:26N 47°35' W 003°02'0 0.0
2017-Oct-27 13:56N 47°35' W 003°02'0 0.0
2017-Oct-27 13:29N 47°35' W 003°02'0 0.0
2017-Oct-27 12:59N 47°35' W 003°02'0 0.0
2017-Oct-27 12:29N 47°35' W 003°02'0 0.0
2017-Oct-27 11:59N 47°35' W 003°02'0 0.0
2017-Oct-27 11:29N 47°35' W 003°02'0 0.0
2017-Oct-27 10:59N 47°35' W 003°02'0 0.0
2017-Oct-27 10:29N 47°35' W 003°02'0 0.0
2017-Oct-27 09:59N 47°35' W 003°02'0 0.0
2017-Oct-27 09:29N 47°35' W 003°02'0 0.0
2017-Oct-26 14:19N 47°35' W 003°02'0 0.0
2017-Oct-26 13:58N 47°35' W 003°02'0 0.0
2017-Oct-26 13:28N 47°35' W 003°02'0 0.0
2017-Oct-26 12:58N 47°35' W 003°02'0 0.0
2017-Oct-26 12:28N 47°35' W 003°02'0 0.0
2017-Oct-26 11:58N 47°35' W 003°02'0 0.0
2017-Oct-26 11:28N 47°35' W 003°02'0 0.0
2017-Oct-26 10:58N 47°35' W 003°02'0 0.0
2017-Oct-26 10:28N 47°35' W 003°02'0 0.0
2017-Oct-26 09:58N 47°35' W 003°02'0 0.0
2017-Oct-26 09:28N 47°35' W 003°02'0 0.0
2017-Oct-26 08:58N 47°35' W 003°02'0 0.0
2017-Oct-25 14:37N 47°35' W 003°02'0 0.0
2017-Oct-25 14:19N 47°35' W 003°02'0 0.0
2017-Oct-25 13:52N 47°35' W 003°02'0 0.0
2017-Oct-25 13:28N 47°35' W 003°02'0 0.0
2017-Oct-25 12:49N 47°35' W 003°02'0 0.0
2017-Oct-25 12:28N 47°35' W 003°02'0 0.0
2017-Oct-25 11:55N 47°35' W 003°02'0 0.0
2017-Oct-25 11:25N 47°35' W 003°02'0 0.0
2017-Oct-25 10:58N 47°35' W 003°02'0 0.0
2017-Oct-25 10:28N 47°35' W 003°02'0 0.0
2017-Oct-25 09:58N 47°35' W 003°02'0 0.0
2017-Oct-25 09:28N 47°35' W 003°02'0 0.0
2017-Oct-25 08:58N 47°35' W 003°02'0 0.0
2017-Oct-25 08:28N 47°35' W 003°02'  

Dump ship's entire track history